sensor_id;sensor_type;location;lat;lon;timestamp;pressure;altitude;pressure_sealevel;temperature;humidity
77147;BME280;66121;52.584;9.694;2023-09-19T00:00:34;100155.38;;;15.48;100.00
77147;BME280;66121;52.584;9.694;2023-09-19T00:03:21;100155.47;;;15.41;100.00
77147;BME280;66121;52.584;9.694;2023-09-19T00:06:08;100155.91;;;15.40;100.00
77147;BME280;66121;52.584;9.694;2023-09-19T00:08:54;100164.75;;;15.35;100.00
77147;BME280;66121;52.584;9.694;2023-09-19T00:11:40;100174.38;;;15.30;100.00
77147;BME280;66121;52.584;9.694;2023-09-19T00:14:26;100174.88;;;15.25;100.00
77147;BME280;66121;52.584;9.694;2023-09-19T00:17:12;100180.72;;;15.31;100.00
77147;BME280;66121;52.584;9.694;2023-09-19T00:19:58;100163.81;;;15.22;100.00
77147;BME280;66121;52.584;9.694;2023-09-19T00:22:44;100176.88;;;15.25;100.00
77147;BME280;66121;52.584;9.694;2023-09-19T00:25:29;100169.03;;;15.39;100.00
77147;BME280;66121;52.584;9.694;2023-09-19T00:28:15;100181.94;;;15.30;100.00
77147;BME280;66121;52.584;9.694;2023-09-19T00:31:02;100170.72;;;15.33;100.00
77147;BME280;66121;52.584;9.694;2023-09-19T00:33:47;100177.03;;;15.37;100.00
77147;BME280;66121;52.584;9.694;2023-09-19T00:36:34;100184.28;;;15.31;100.00
77147;BME280;66121;52.584;9.694;2023-09-19T00:39:19;100190.13;;;15.37;100.00
77147;BME280;66121;52.584;9.694;2023-09-19T00:42:05;100196.78;;;15.43;100.00
77147;BME280;66121;52.584;9.694;2023-09-19T00:44:51;100194.84;;;15.40;100.00
77147;BME280;66121;52.584;9.694;2023-09-19T00:47:50;100201.53;;;15.42;100.00
77147;BME280;66121;52.584;9.694;2023-09-19T00:50:37;100215.44;;;15.42;100.00
77147;BME280;66121;52.584;9.694;2023-09-19T00:53:27;100205.53;;;15.41;100.00
77147;BME280;66121;52.584;9.694;2023-09-19T00:56:14;100220.28;;;15.38;100.00
77147;BME280;66121;52.584;9.694;2023-09-19T00:59:00;100216.34;;;15.36;100.00
77147;BME280;66121;52.584;9.694;2023-09-19T01:01:46;100216.84;;;15.31;100.00
77147;BME280;66121;52.584;9.694;2023-09-19T01:04:34;100233.53;;;15.31;100.00
77147;BME280;66121;52.584;9.694;2023-09-19T01:07:21;100229.44;;;15.16;100.00
77147;BME280;66121;52.584;9.694;2023-09-19T01:10:11;100231.31;;;15.22;100.00
77147;BME280;66121;52.584;9.694;2023-09-19T01:13:09;100239.81;;;15.35;100.00
77147;BME280;66121;52.584;9.694;2023-09-19T01:16:42;100251.72;;;15.35;100.00
77147;BME280;66121;52.584;9.694;2023-09-19T01:20:06;100255.00;;;15.30;100.00
77147;BME280;66121;52.584;9.694;2023-09-19T01:32:21;100266.84;;;15.34;100.00
77147;BME280;66121;52.584;9.694;2023-09-19T01:35:10;100272.88;;;15.29;100.00
77147;BME280;66121;52.584;9.694;2023-09-19T01:37:58;100281.09;;;15.36;100.00
77147;BME280;66121;52.584;9.694;2023-09-19T01:40:51;100281.88;;;15.37;100.00
77147;BME280;66121;52.584;9.694;2023-09-19T01:43:45;100284.16;;;15.42;100.00
77147;BME280;66121;52.584;9.694;2023-09-19T01:46:39;100293.66;;;15.44;100.00
77147;BME280;66121;52.584;9.694;2023-09-19T01:49:37;100294.09;;;15.43;100.00
77147;BME280;66121;52.584;9.694;2023-09-19T01:52:31;100301.19;;;15.44;100.00
77147;BME280;66121;52.584;9.694;2023-09-19T01:55:23;100286.59;;;15.40;100.00
77147;BME280;66121;52.584;9.694;2023-09-19T01:58:31;100299.66;;;15.43;100.00
77147;BME280;66121;52.584;9.694;2023-09-19T02:01:20;100298.34;;;15.28;100.00
77147;BME280;66121;52.584;9.694;2023-09-19T02:04:07;100281.75;;;15.21;100.00
77147;BME280;66121;52.584;9.694;2023-09-19T02:06:53;100284.31;;;15.12;100.00
77147;BME280;66121;52.584;9.694;2023-09-19T02:09:39;100277.47;;;15.16;100.00
77147;BME280;66121;52.584;9.694;2023-09-19T02:12:24;100293.44;;;15.12;100.00
77147;BME280;66121;52.584;9.694;2023-09-19T02:15:10;100309.31;;;15.12;100.00
77147;BME280;66121;52.584;9.694;2023-09-19T02:17:56;100302.63;;;15.09;100.00
77147;BME280;66121;52.584;9.694;2023-09-19T02:20:42;100305.44;;;15.06;100.00
77147;BME280;66121;52.584;9.694;2023-09-19T02:23:28;100312.22;;;15.05;100.00
77147;BME280;66121;52.584;9.694;2023-09-19T02:26:15;100326.13;;;15.05;100.00
77147;BME280;66121;52.584;9.694;2023-09-19T02:29:01;100331.59;;;15.08;100.00
77147;BME280;66121;52.584;9.694;2023-09-19T02:31:50;100333.66;;;15.04;100.00
77147;BME280;66121;52.584;9.694;2023-09-19T02:34:36;100329.69;;;15.05;100.00
77147;BME280;66121;52.584;9.694;2023-09-19T02:37:21;100341.75;;;15.18;100.00
77147;BME280;66121;52.584;9.694;2023-09-19T02:40:08;100341.47;;;15.13;100.00
77147;BME280;66121;52.584;9.694;2023-09-19T02:43:04;100338.06;;;15.02;100.00
77147;BME280;66121;52.584;9.694;2023-09-19T02:45:50;100348.19;;;14.89;100.00
77147;BME280;66121;52.584;9.694;2023-09-19T02:48:38;100341.41;;;14.93;100.00
77147;BME280;66121;52.584;9.694;2023-09-19T02:51:24;100341.00;;;14.91;100.00
77147;BME280;66121;52.584;9.694;2023-09-19T02:54:10;100343.44;;;14.89;100.00
77147;BME280;66121;52.584;9.694;2023-09-19T02:56:56;100346.69;;;14.84;100.00
77147;BME280;66121;52.584;9.694;2023-09-19T02:59:45;100361.00;;;14.82;100.00
77147;BME280;66121;52.584;9.694;2023-09-19T03:02:30;100361.72;;;14.87;100.00
77147;BME280;66121;52.584;9.694;2023-09-19T03:05:21;100357.91;;;14.77;100.00
77147;BME280;66121;52.584;9.694;2023-09-19T03:08:06;100355.84;;;14.81;100.00
77147;BME280;66121;52.584;9.694;2023-09-19T03:10:52;100365.34;;;14.83;100.00
77147;BME280;66121;52.584;9.694;2023-09-19T03:13:38;100383.59;;;14.84;100.00
77147;BME280;66121;52.584;9.694;2023-09-19T03:16:25;100382.31;;;14.89;100.00
77147;BME280;66121;52.584;9.694;2023-09-19T03:19:11;100394.44;;;15.02;100.00
77147;BME280;66121;52.584;9.694;2023-09-19T03:21:56;100407.03;;;15.10;100.00
77147;BME280;66121;52.584;9.694;2023-09-19T03:24:43;100396.00;;;15.03;100.00
77147;BME280;66121;52.584;9.694;2023-09-19T03:27:29;100404.72;;;15.05;100.00
77147;BME280;66121;52.584;9.694;2023-09-19T03:30:14;100406.75;;;15.01;100.00
77147;BME280;66121;52.584;9.694;2023-09-19T03:33:00;100404.25;;;15.10;100.00
77147;BME280;66121;52.584;9.694;2023-09-19T03:35:55;100414.56;;;15.10;100.00
77147;BME280;66121;52.584;9.694;2023-09-19T03:38:40;100410.56;;;15.11;100.00
77147;BME280;66121;52.584;9.694;2023-09-19T03:41:26;100400.25;;;15.11;100.00
77147;BME280;66121;52.584;9.694;2023-09-19T03:44:12;100404.25;;;15.10;100.00
77147;BME280;66121;52.584;9.694;2023-09-19T03:46:57;100413.72;;;15.13;100.00
77147;BME280;66121;52.584;9.694;2023-09-19T03:49:43;100410.56;;;15.11;100.00
77147;BME280;66121;52.584;9.694;2023-09-19T03:52:28;100411.44;;;15.08;100.00
77147;BME280;66121;52.584;9.694;2023-09-19T03:55:14;100419.69;;;15.11;100.00
77147;BME280;66121;52.584;9.694;2023-09-19T03:58:02;100414.13;;;15.11;100.00
77147;BME280;66121;52.584;9.694;2023-09-19T04:00:47;100420.22;;;15.03;100.00
77147;BME280;66121;52.584;9.694;2023-09-19T04:03:35;100411.03;;;15.06;100.00
77147;BME280;66121;52.584;9.694;2023-09-19T04:06:31;100426.47;;;15.10;100.00
77147;BME280;66121;52.584;9.694;2023-09-19T04:09:17;100433.28;;;15.06;100.00
77147;BME280;66121;52.584;9.694;2023-09-19T04:12:03;100427.72;;;15.06;100.00
77147;BME280;66121;52.584;9.694;2023-09-19T04:14:49;100425.50;;;14.94;100.00
77147;BME280;66121;52.584;9.694;2023-09-19T04:17:35;100428.88;;;14.81;100.00
77147;BME280;66121;52.584;9.694;2023-09-19T04:20:21;100439.56;;;14.83;100.00
77147;BME280;66121;52.584;9.694;2023-09-19T04:23:08;100434.63;;;14.67;100.00
77147;BME280;66121;52.584;9.694;2023-09-19T04:25:54;100434.38;;;14.55;100.00
77147;BME280;66121;52.584;9.694;2023-09-19T04:28:39;100442.66;;;14.58;100.00
77147;BME280;66121;52.584;9.694;2023-09-19T04:31:25;100435.56;;;14.54;100.00
77147;BME280;66121;52.584;9.694;2023-09-19T04:34:11;100437.09;;;14.58;100.00
77147;BME280;66121;52.584;9.694;2023-09-19T04:37:03;100448.63;;;14.57;100.00
77147;BME280;66121;52.584;9.694;2023-09-19T04:39:49;100445.94;;;14.50;100.00
77147;BME280;66121;52.584;9.694;2023-09-19T04:42:34;100445.16;;;14.49;100.00
77147;BME280;66121;52.584;9.694;2023-09-19T04:45:20;100441.69;;;14.42;100.00
77147;BME280;66121;52.584;9.694;2023-09-19T04:48:06;100465.03;;;14.44;100.00
77147;BME280;66121;52.584;9.694;2023-09-19T04:50:54;100470.66;;;14.41;100.00
77147;BME280;66121;52.584;9.694;2023-09-19T04:53:40;100479.63;;;14.52;100.00
77147;BME280;66121;52.584;9.694;2023-09-19T04:56:26;100474.91;;;14.49;100.00
77147;BME280;66121;52.584;9.694;2023-09-19T04:59:13;100463.44;;;14.47;100.00
77147;BME280;66121;52.584;9.694;2023-09-19T05:02:00;100468.19;;;14.46;100.00
77147;BME280;66121;52.584;9.694;2023-09-19T05:04:46;100470.13;;;14.53;100.00
77147;BME280;66121;52.584;9.694;2023-09-19T05:07:31;100463.44;;;14.47;100.00
77147;BME280;66121;52.584;9.694;2023-09-19T05:10:17;100469.78;;;14.47;100.00
77147;BME280;66121;52.584;9.694;2023-09-19T05:13:06;100464.59;;;14.49;100.00
77147;BME280;66121;52.584;9.694;2023-09-19T05:15:53;100475.75;;;14.46;100.00
77147;BME280;66121;52.584;9.694;2023-09-19T05:18:38;100486.53;;;14.40;100.00
77147;BME280;66121;52.584;9.694;2023-09-19T05:21:25;100496.84;;;14.40;100.00
77147;BME280;66121;52.584;9.694;2023-09-19T05:24:14;100494.06;;;14.40;100.00
77147;BME280;66121;52.584;9.694;2023-09-19T05:27:00;100493.59;;;14.45;100.00
77147;BME280;66121;52.584;9.694;2023-09-19T05:29:46;100503.09;;;14.47;100.00
77147;BME280;66121;52.584;9.694;2023-09-19T05:32:33;100515.78;;;14.48;100.00
77147;BME280;66121;52.584;9.694;2023-09-19T05:35:18;100517.25;;;14.56;99.90
77147;BME280;66121;52.584;9.694;2023-09-19T05:38:04;100526.00;;;14.55;100.00
77147;BME280;66121;52.584;9.694;2023-09-19T05:40:51;100526.84;;;14.52;99.26
77147;BME280;66121;52.584;9.694;2023-09-19T05:43:36;100552.97;;;14.58;100.00
77147;BME280;66121;52.584;9.694;2023-09-19T05:46:22;100552.91;;;14.61;99.32
77147;BME280;66121;52.584;9.694;2023-09-19T05:49:08;100559.28;;;14.58;98.66
77147;BME280;66121;52.584;9.694;2023-09-19T05:51:54;100556.56;;;14.55;98.61
77147;BME280;66121;52.584;9.694;2023-09-19T05:54:41;100562.09;;;14.55;98.31
77147;BME280;66121;52.584;9.694;2023-09-19T05:57:28;100564.59;;;14.46;99.40
77147;BME280;66121;52.584;9.694;2023-09-19T06:00:14;100555.53;;;14.38;99.56
77147;BME280;66121;52.584;9.694;2023-09-19T06:03:00;100553.88;;;14.44;100.00
77147;BME280;66121;52.584;9.694;2023-09-19T06:05:46;100562.94;;;14.52;100.00
77147;BME280;66121;52.584;9.694;2023-09-19T06:08:35;100574.09;;;14.48;99.47
77147;BME280;66121;52.584;9.694;2023-09-19T06:11:20;100576.88;;;14.48;99.83
77147;BME280;66121;52.584;9.694;2023-09-19T06:14:06;100570.88;;;14.53;99.80
77147;BME280;66121;52.584;9.694;2023-09-19T06:16:52;100565.31;;;14.53;99.80
77147;BME280;66121;52.584;9.694;2023-09-19T06:19:39;100565.69;;;14.55;98.34
77147;BME280;66121;52.584;9.694;2023-09-19T06:22:25;100546.69;;;14.50;97.41
77147;BME280;66121;52.584;9.694;2023-09-19T06:25:12;100562.38;;;14.67;97.33
77147;BME280;66121;52.584;9.694;2023-09-19T06:27:58;100558.06;;;14.63;97.28
77147;BME280;66121;52.584;9.694;2023-09-19T06:30:44;100564.34;;;14.67;96.66
77147;BME280;66121;52.584;9.694;2023-09-19T06:33:29;100564.25;;;14.74;96.46
77147;BME280;66121;52.584;9.694;2023-09-19T06:36:16;100569.38;;;14.79;96.24
77147;BME280;66121;52.584;9.694;2023-09-19T06:39:02;100573.28;;;14.85;95.31
77147;BME280;66121;52.584;9.694;2023-09-19T06:41:49;100576.00;;;14.89;95.01
77147;BME280;66121;52.584;9.694;2023-09-19T06:44:35;100585.00;;;15.00;95.34
77147;BME280;66121;52.584;9.694;2023-09-19T06:47:20;100589.28;;;15.08;95.10
77147;BME280;66121;52.584;9.694;2023-09-19T06:50:06;100597.44;;;15.22;92.88
77147;BME280;66121;52.584;9.694;2023-09-19T06:52:58;100591.28;;;15.37;93.53
77147;BME280;66121;52.584;9.694;2023-09-19T06:55:46;100583.31;;;15.39;92.41
77147;BME280;66121;52.584;9.694;2023-09-19T06:58:33;100586.53;;;15.34;91.63
77147;BME280;66121;52.584;9.694;2023-09-19T07:01:19;100586.53;;;15.34;92.98
77147;BME280;66121;52.584;9.694;2023-09-19T07:04:04;100575.91;;;15.26;92.11
77147;BME280;66121;52.584;9.694;2023-09-19T07:06:50;100579.16;;;15.21;90.40
77147;BME280;66121;52.584;9.694;2023-09-19T07:09:36;100583.06;;;15.27;88.05
77147;BME280;66121;52.584;9.694;2023-09-19T07:12:22;100597.19;;;15.39;89.46
77147;BME280;66121;52.584;9.694;2023-09-19T07:15:08;100574.63;;;15.34;87.92
77147;BME280;66121;52.584;9.694;2023-09-19T07:17:55;100577.31;;;15.41;89.11
77147;BME280;66121;52.584;9.694;2023-09-19T07:20:42;100580.03;;;15.48;87.75
77147;BME280;66121;52.584;9.694;2023-09-19T07:23:35;100602.22;;;15.52;87.09
77147;BME280;66121;52.584;9.694;2023-09-19T07:26:21;100585.09;;;15.53;84.98
77147;BME280;66121;52.584;9.694;2023-09-19T07:29:06;100604.19;;;15.55;86.32
77147;BME280;66121;52.584;9.694;2023-09-19T07:31:54;100594.53;;;15.63;87.76
77147;BME280;66121;52.584;9.694;2023-09-19T07:34:39;100615.31;;;15.81;85.31
77147;BME280;66121;52.584;9.694;2023-09-19T07:37:26;100611.63;;;15.88;83.64
77147;BME280;66121;52.584;9.694;2023-09-19T07:40:11;100627.34;;;15.98;84.99
77147;BME280;66121;52.584;9.694;2023-09-19T07:42:58;100620.34;;;15.90;84.73
77147;BME280;66121;52.584;9.694;2023-09-19T07:45:46;100621.50;;;15.92;84.41
77147;BME280;66121;52.584;9.694;2023-09-19T07:48:34;100641.06;;;16.12;84.75
77147;BME280;66121;52.584;9.694;2023-09-19T07:51:21;100642.06;;;16.25;84.84
77147;BME280;66121;52.584;9.694;2023-09-19T07:54:06;100617.06;;;16.22;82.64
77147;BME280;66121;52.584;9.694;2023-09-19T07:56:53;100608.50;;;16.09;81.55
77147;BME280;66121;52.584;9.694;2023-09-19T07:59:39;100622.25;;;16.43;81.40
77147;BME280;66121;52.584;9.694;2023-09-19T08:02:27;100621.56;;;16.62;81.48
77147;BME280;66121;52.584;9.694;2023-09-19T08:05:13;100627.63;;;16.57;79.66
77147;BME280;66121;52.584;9.694;2023-09-19T08:08:02;100626.50;;;16.74;82.69
77147;BME280;66121;52.584;9.694;2023-09-19T08:10:53;100615.72;;;16.76;79.27
77147;BME280;66121;52.584;9.694;2023-09-19T08:13:39;100624.88;;;16.96;77.49
77147;BME280;66121;52.584;9.694;2023-09-19T08:16:34;100602.47;;;16.60;77.95
77147;BME280;66121;52.584;9.694;2023-09-19T08:19:19;100607.44;;;16.72;76.81
77147;BME280;66121;52.584;9.694;2023-09-19T08:22:08;100626.72;;;17.03;79.33
77147;BME280;66121;52.584;9.694;2023-09-19T08:24:56;100616.75;;;17.25;76.57
77147;BME280;66121;52.584;9.694;2023-09-19T08:27:41;100605.72;;;17.18;76.16
77147;BME280;66121;52.584;9.694;2023-09-19T08:30:29;100612.22;;;17.31;75.74
77147;BME280;66121;52.584;9.694;2023-09-19T08:33:15;100609.78;;;17.33;74.55
77147;BME280;66121;52.584;9.694;2023-09-19T08:36:05;100599.59;;;17.42;74.63
77147;BME280;66121;52.584;9.694;2023-09-19T08:38:51;100604.19;;;17.53;74.91
77147;BME280;66121;52.584;9.694;2023-09-19T08:41:37;100599.97;;;17.45;73.81
77147;BME280;66121;52.584;9.694;2023-09-19T08:44:23;100580.22;;;17.55;72.25
77147;BME280;66121;52.584;9.694;2023-09-19T08:47:11;100606.53;;;17.90;72.50
77147;BME280;66121;52.584;9.694;2023-09-19T08:50:19;100614.13;;;18.38;69.86
77147;BME280;66121;52.584;9.694;2023-09-19T08:53:16;100616.06;;;18.09;72.10
77147;BME280;66121;52.584;9.694;2023-09-19T08:56:09;100614.50;;;18.24;71.18
77147;BME280;66121;52.584;9.694;2023-09-19T08:58:59;100605.84;;;18.18;70.62
77147;BME280;66121;52.584;9.694;2023-09-19T09:01:46;100630.34;;;18.75;72.82
77147;BME280;66121;52.584;9.694;2023-09-19T09:04:33;100615.00;;;18.67;68.24
77147;BME280;66121;52.584;9.694;2023-09-19T09:07:21;100628.03;;;19.15;69.58
77147;BME280;66121;52.584;9.694;2023-09-19T09:10:07;100616.16;;;19.40;66.76
77147;BME280;66121;52.584;9.694;2023-09-19T09:12:53;100633.22;;;19.58;68.77
77147;BME280;66121;52.584;9.694;2023-09-19T09:15:40;100599.09;;;19.21;65.10
77147;BME280;66121;52.584;9.694;2023-09-19T09:18:28;100606.38;;;19.32;64.75
77147;BME280;66121;52.584;9.694;2023-09-19T09:21:15;100593.00;;;18.53;68.07
77147;BME280;66121;52.584;9.694;2023-09-19T09:24:26;100597.94;;;18.78;68.61
77147;BME280;66121;52.584;9.694;2023-09-19T09:27:14;100602.66;;;19.09;69.87
77147;BME280;66121;52.584;9.694;2023-09-19T09:30:00;100563.50;;;18.36;67.01
77147;BME280;66121;52.584;9.694;2023-09-19T09:32:46;100584.59;;;18.69;67.45
77147;BME280;66121;52.584;9.694;2023-09-19T09:35:33;100589.41;;;19.10;66.56
77147;BME280;66121;52.584;9.694;2023-09-19T09:38:22;100578.44;;;19.03;66.70
77147;BME280;66121;52.584;9.694;2023-09-19T09:41:15;100583.19;;;18.90;66.82
77147;BME280;66121;52.584;9.694;2023-09-19T09:44:14;100552.09;;;17.98;67.77
77147;BME280;66121;52.584;9.694;2023-09-19T09:47:01;100551.59;;;17.87;69.15
77147;BME280;66121;52.584;9.694;2023-09-19T09:50:05;100591.88;;;18.34;70.48
77147;BME280;66121;52.584;9.694;2023-09-19T09:52:52;100566.31;;;18.03;69.61
77147;BME280;66121;52.584;9.694;2023-09-19T09:56:06;100586.53;;;18.56;68.97
77147;BME280;66121;52.584;9.694;2023-09-19T09:58:52;100582.38;;;18.32;68.68
77147;BME280;66121;52.584;9.694;2023-09-19T10:01:46;100580.16;;;18.55;67.37
77147;BME280;66121;52.584;9.694;2023-09-19T10:04:33;100580.22;;;18.68;67.29
77147;BME280;66121;52.584;9.694;2023-09-19T10:07:26;100569.53;;;18.50;68.22
77147;BME280;66121;52.584;9.694;2023-09-19T10:13:25;100575.16;;;18.63;67.65
77147;BME280;66121;52.584;9.694;2023-09-19T10:16:12;100569.44;;;18.54;70.56
77147;BME280;66121;52.584;9.694;2023-09-19T10:19:02;100581.31;;;18.87;68.68
77147;BME280;66121;52.584;9.694;2023-09-19T10:21:53;100562.38;;;18.49;66.00
77147;BME280;66121;52.584;9.694;2023-09-19T10:24:41;100554.69;;;18.53;68.41
77147;BME280;66121;52.584;9.694;2023-09-19T10:27:29;100557.59;;;18.62;69.30
77147;BME280;66121;52.584;9.694;2023-09-19T10:30:16;100556.44;;;18.47;67.62
77147;BME280;66121;52.584;9.694;2023-09-19T10:33:03;100568.19;;;18.55;68.21
77147;BME280;66121;52.584;9.694;2023-09-19T10:35:51;100556.34;;;18.51;69.04
77147;BME280;66121;52.584;9.694;2023-09-19T10:38:38;100551.00;;;18.40;68.87
77147;BME280;66121;52.584;9.694;2023-09-19T10:41:27;100587.06;;;19.50;69.21
77147;BME280;66121;52.584;9.694;2023-09-19T10:44:17;100551.19;;;19.07;66.16
77147;BME280;66121;52.584;9.694;2023-09-19T10:47:06;100530.78;;;18.65;65.95
77147;BME280;66121;52.584;9.694;2023-09-19T10:49:52;100532.56;;;18.43;66.92
77147;BME280;66121;52.584;9.694;2023-09-19T10:52:41;100574.69;;;19.35;67.11
77147;BME280;66121;52.584;9.694;2023-09-19T10:55:28;100557.47;;;19.23;65.13
77147;BME280;66121;52.584;9.694;2023-09-19T10:58:25;100535.75;;;18.74;68.02
77147;BME280;66121;52.584;9.694;2023-09-19T11:01:12;100550.72;;;19.08;66.59
77147;BME280;66121;52.584;9.694;2023-09-19T11:04:29;100536.00;;;18.79;66.43
77147;BME280;66121;52.584;9.694;2023-09-19T11:07:15;100530.31;;;18.95;66.02
77147;BME280;66121;52.584;9.694;2023-09-19T11:10:01;100517.38;;;18.44;67.81
77147;BME280;66121;52.584;9.694;2023-09-19T11:12:49;100547.94;;;19.21;65.89
77147;BME280;66121;52.584;9.694;2023-09-19T11:27:13;100521.34;;;19.29;61.85
77147;BME280;66121;52.584;9.694;2023-09-19T11:30:27;100528.41;;;19.71;66.79
77147;BME280;66121;52.584;9.694;2023-09-19T11:33:30;100523.47;;;19.75;65.01
77147;BME280;66121;52.584;9.694;2023-09-19T11:36:34;100514.28;;;19.75;61.74
77147;BME280;66121;52.584;9.694;2023-09-19T11:39:25;100519.09;;;19.74;61.52
77147;BME280;66121;52.584;9.694;2023-09-19T11:42:47;100516.19;;;19.53;63.52
77147;BME280;66121;52.584;9.694;2023-09-19T11:48:26;100494.81;;;19.34;62.21
77147;BME280;66121;52.584;9.694;2023-09-19T11:51:14;100513.31;;;19.56;63.43
77147;BME280;66121;52.584;9.694;2023-09-19T11:54:12;100496.91;;;19.04;61.64
77147;BME280;66121;52.584;9.694;2023-09-19T11:57:04;100498.69;;;18.98;63.65
77147;BME280;66121;52.584;9.694;2023-09-19T11:59:50;100480.47;;;18.65;62.85
77147;BME280;66121;52.584;9.694;2023-09-19T12:02:39;100499.78;;;18.88;63.82
77147;BME280;66121;52.584;9.694;2023-09-19T12:05:29;100509.56;;;19.21;64.20
77147;BME280;66121;52.584;9.694;2023-09-19T12:08:15;100484.16;;;19.03;61.52
77147;BME280;66121;52.584;9.694;2023-09-19T12:11:04;100473.72;;;18.91;61.69
77147;BME280;66121;52.584;9.694;2023-09-19T12:13:50;100483.13;;;18.97;62.86
77147;BME280;66121;52.584;9.694;2023-09-19T12:16:37;100481.81;;;19.27;62.65
77147;BME280;66121;52.584;9.694;2023-09-19T12:19:23;100465.00;;;18.89;62.12
77147;BME280;66121;52.584;9.694;2023-09-19T12:22:09;100462.56;;;18.91;60.78
77147;BME280;66121;52.584;9.694;2023-09-19T12:25:05;100451.41;;;18.62;62.78
77147;BME280;66121;52.584;9.694;2023-09-19T12:27:51;100458.91;;;18.65;63.14
77147;BME280;66121;52.584;9.694;2023-09-19T12:30:41;100452.41;;;18.56;63.63
77147;BME280;66121;52.584;9.694;2023-09-19T12:33:27;100469.03;;;18.88;61.65
77147;BME280;66121;52.584;9.694;2023-09-19T12:36:31;100482.28;;;19.63;62.77
77147;BME280;66121;52.584;9.694;2023-09-19T12:39:23;100478.34;;;19.73;62.46
77147;BME280;66121;52.584;9.694;2023-09-19T12:42:10;100468.84;;;19.71;61.91
77147;BME280;66121;52.584;9.694;2023-09-19T12:45:00;100445.81;;;19.54;61.75
77147;BME280;66121;52.584;9.694;2023-09-19T12:48:18;100450.06;;;19.46;63.26
77147;BME280;66121;52.584;9.694;2023-09-19T12:51:19;100453.97;;;19.49;63.35
77147;BME280;66121;52.584;9.694;2023-09-19T12:54:08;100456.63;;;19.65;61.34
77147;BME280;66121;52.584;9.694;2023-09-19T12:56:55;100434.38;;;19.49;63.51
77147;BME280;66121;52.584;9.694;2023-09-19T12:59:41;100460.00;;;19.60;64.58
77147;BME280;66121;52.584;9.694;2023-09-19T13:02:27;100436.47;;;19.32;64.10
77147;BME280;66121;52.584;9.694;2023-09-19T13:05:14;100462.13;;;20.03;62.51
77147;BME280;66121;52.584;9.694;2023-09-19T13:08:20;100468.88;;;20.61;61.07
77147;BME280;66121;52.584;9.694;2023-09-19T13:11:13;100425.09;;;20.20;58.73
77147;BME280;66121;52.584;9.694;2023-09-19T13:14:16;100444.31;;;20.43;60.20
77147;BME280;66121;52.584;9.694;2023-09-19T13:17:06;100422.00;;;19.84;60.22
77147;BME280;66121;52.584;9.694;2023-09-19T13:20:01;100408.91;;;20.03;60.58
77147;BME280;66121;52.584;9.694;2023-09-19T13:22:48;100405.59;;;19.61;61.27
77147;BME280;66121;52.584;9.694;2023-09-19T13:25:38;100447.00;;;20.34;62.18
77147;BME280;66121;52.584;9.694;2023-09-19T13:28:25;100419.41;;;20.45;59.93
77147;BME280;66121;52.584;9.694;2023-09-19T13:31:13;100421.38;;;20.67;58.98
77147;BME280;66121;52.584;9.694;2023-09-19T13:33:59;100411.91;;;20.42;60.67
77147;BME280;66121;52.584;9.694;2023-09-19T13:36:45;100430.19;;;20.78;59.31
77147;BME280;66121;52.584;9.694;2023-09-19T13:39:33;100409.22;;;21.22;57.73
77147;BME280;66121;52.584;9.694;2023-09-19T13:42:19;100408.94;;;20.98;59.75
77147;BME280;66121;52.584;9.694;2023-09-19T13:45:07;100416.34;;;21.54;56.29
77147;BME280;66121;52.584;9.694;2023-09-19T13:47:57;100372.81;;;20.39;58.22
77147;BME280;66121;52.584;9.694;2023-09-19T13:50:44;100389.69;;;20.79;56.58
77147;BME280;66121;52.584;9.694;2023-09-19T13:53:30;100360.56;;;19.89;59.39
77147;BME280;66121;52.584;9.694;2023-09-19T13:56:16;100401.38;;;21.08;55.68
77147;BME280;66121;52.584;9.694;2023-09-19T13:59:02;100376.59;;;20.76;57.49
77147;BME280;66121;52.584;9.694;2023-09-19T14:01:47;100346.97;;;20.01;59.76
77147;BME280;66121;52.584;9.694;2023-09-19T14:04:33;100381.22;;;20.70;59.86
77147;BME280;66121;52.584;9.694;2023-09-19T14:07:19;100360.16;;;20.65;59.84
77147;BME280;66121;52.584;9.694;2023-09-19T14:10:05;100328.94;;;20.02;58.48
77147;BME280;66121;52.584;9.694;2023-09-19T14:12:53;100369.69;;;20.68;58.47
77147;BME280;66121;52.584;9.694;2023-09-19T14:15:39;100332.13;;;19.91;59.64
77147;BME280;66121;52.584;9.694;2023-09-19T14:18:25;100340.59;;;20.00;61.31
77147;BME280;66121;52.584;9.694;2023-09-19T14:21:11;100325.53;;;19.63;60.25
77147;BME280;66121;52.584;9.694;2023-09-19T14:23:56;100326.59;;;20.00;59.93
77147;BME280;66121;52.584;9.694;2023-09-19T14:26:42;100322.63;;;19.67;59.65
77147;BME280;66121;52.584;9.694;2023-09-19T14:29:29;100325.00;;;19.77;59.41
77147;BME280;66121;52.584;9.694;2023-09-19T14:32:15;100331.59;;;20.05;59.54
77147;BME280;66121;52.584;9.694;2023-09-19T14:35:02;100339.50;;;20.41;60.35
77147;BME280;66121;52.584;9.694;2023-09-19T14:37:47;100336.31;;;20.61;56.88
77147;BME280;66121;52.584;9.694;2023-09-19T14:40:33;100294.22;;;19.99;59.12
77147;BME280;66121;52.584;9.694;2023-09-19T14:43:19;100336.56;;;20.23;59.79
77147;BME280;66121;52.584;9.694;2023-09-19T14:46:05;100321.19;;;20.27;58.60
77147;BME280;66121;52.584;9.694;2023-09-19T14:48:56;100324.19;;;20.33;60.43
77147;BME280;66121;52.584;9.694;2023-09-19T14:51:45;100350.09;;;20.77;59.18
77147;BME280;66121;52.584;9.694;2023-09-19T14:54:32;100333.63;;;20.88;58.27
77147;BME280;66121;52.584;9.694;2023-09-19T14:57:19;100307.38;;;20.64;57.18
77147;BME280;66121;52.584;9.694;2023-09-19T15:00:05;100296.38;;;20.17;59.07
77147;BME280;66121;52.584;9.694;2023-09-19T15:02:53;100315.59;;;20.27;58.66